sensor_id;sensor_type;location;lat;lon;timestamp;temperature;humidity
66343;DHT22;53144;51.524;5.080;2023-08-06T00:01:38;14.96;99.99
66343;DHT22;53144;51.524;5.080;2023-08-06T00:04:03;14.96;99.99
66343;DHT22;53144;51.524;5.080;2023-08-06T00:06:28;14.95;99.99
66343;DHT22;53144;51.524;5.080;2023-08-06T00:08:54;14.95;99.99
66343;DHT22;53144;51.524;5.080;2023-08-06T00:11:20;14.92;99.99
66343;DHT22;53144;51.524;5.080;2023-08-06T00:13:45;14.91;99.99
66343;DHT22;53144;51.524;5.080;2023-08-06T00:16:12;14.92;99.99
66343;DHT22;53144;51.524;5.080;2023-08-06T00:18:38;14.92;99.99
66343;DHT22;53144;51.524;5.080;2023-08-06T00:21:04;14.88;99.99
66343;DHT22;53144;51.524;5.080;2023-08-06T00:23:29;14.85;99.99
66343;DHT22;53144;51.524;5.080;2023-08-06T00:25:55;14.79;99.99
66343;DHT22;53144;51.524;5.080;2023-08-06T00:28:20;14.84;99.99
66343;DHT22;53144;51.524;5.080;2023-08-06T00:30:45;14.81;99.99
66343;DHT22;53144;51.524;5.080;2023-08-06T00:33:11;14.84;99.99
66343;DHT22;53144;51.524;5.080;2023-08-06T00:35:36;14.84;99.99
66343;DHT22;53144;51.524;5.080;2023-08-06T00:38:02;14.81;99.99
66343;DHT22;53144;51.524;5.080;2023-08-06T00:40:27;14.78;99.99
66343;DHT22;53144;51.524;5.080;2023-08-06T00:42:55;14.77;99.99
66343;DHT22;53144;51.524;5.080;2023-08-06T00:45:21;14.84;99.99
66343;DHT22;53144;51.524;5.080;2023-08-06T00:47:47;14.78;99.99
66343;DHT22;53144;51.524;5.080;2023-08-06T00:50:13;14.78;99.99
66343;DHT22;53144;51.524;5.080;2023-08-06T00:52:38;14.72;99.99
66343;DHT22;53144;51.524;5.080;2023-08-06T00:55:04;14.74;99.99
66343;DHT22;53144;51.524;5.080;2023-08-06T00:57:31;14.75;99.99
66343;DHT22;53144;51.524;5.080;2023-08-06T00:59:56;14.71;99.99
66343;DHT22;53144;51.524;5.080;2023-08-06T01:02:22;14.72;99.99
66343;DHT22;53144;51.524;5.080;2023-08-06T01:04:47;14.75;99.99
66343;DHT22;53144;51.524;5.080;2023-08-06T01:07:40;14.72;99.99
66343;DHT22;53144;51.524;5.080;2023-08-06T01:10:15;14.72;99.99
66343;DHT22;53144;51.524;5.080;2023-08-06T01:12:49;14.69;99.99
66343;DHT22;53144;51.524;5.080;2023-08-06T01:15:21;14.67;99.99
66343;DHT22;53144;51.524;5.080;2023-08-06T01:17:48;14.72;99.99
66343;DHT22;53144;51.524;5.080;2023-08-06T01:20:13;14.75;99.99
66343;DHT22;53144;51.524;5.080;2023-08-06T01:22:39;14.77;99.99
66343;DHT22;53144;51.524;5.080;2023-08-06T01:25:05;14.72;99.99
66343;DHT22;53144;51.524;5.080;2023-08-06T01:27:50;14.79;99.99
66343;DHT22;53144;51.524;5.080;2023-08-06T01:30:20;14.78;99.99
66343;DHT22;53144;51.524;5.080;2023-08-06T01:32:49;14.75;99.99
66343;DHT22;53144;51.524;5.080;2023-08-06T01:35:19;14.72;99.99
66343;DHT22;53144;51.524;5.080;2023-08-06T01:37:45;14.75;99.99
66343;DHT22;53144;51.524;5.080;2023-08-06T01:40:13;14.68;99.99
66343;DHT22;53144;51.524;5.080;2023-08-06T01:42:39;14.65;99.99
66343;DHT22;53144;51.524;5.080;2023-08-06T01:45:05;14.65;99.99
66343;DHT22;53144;51.524;5.080;2023-08-06T01:47:31;14.68;99.99
66343;DHT22;53144;51.524;5.080;2023-08-06T01:49:56;14.65;99.99
66343;DHT22;53144;51.524;5.080;2023-08-06T01:52:22;14.65;99.99
66343;DHT22;53144;51.524;5.080;2023-08-06T01:54:47;14.61;99.99
66343;DHT22;53144;51.524;5.080;2023-08-06T01:57:13;14.65;99.99
66343;DHT22;53144;51.524;5.080;2023-08-06T01:59:38;14.61;99.99
66343;DHT22;53144;51.524;5.080;2023-08-06T02:02:04;14.61;99.99
66343;DHT22;53144;51.524;5.080;2023-08-06T02:04:29;14.61;99.99
66343;DHT22;53144;51.524;5.080;2023-08-06T02:06:55;14.63;99.99
66343;DHT22;53144;51.524;5.080;2023-08-06T02:09:20;14.64;99.99
66343;DHT22;53144;51.524;5.080;2023-08-06T02:11:46;14.61;99.99
66343;DHT22;53144;51.524;5.080;2023-08-06T02:14:11;14.64;99.99
66343;DHT22;53144;51.524;5.080;2023-08-06T02:16:37;14.63;99.99
66343;DHT22;53144;51.524;5.080;2023-08-06T02:19:02;14.58;99.99
66343;DHT22;53144;51.524;5.080;2023-08-06T02:21:28;14.60;99.99
66343;DHT22;53144;51.524;5.080;2023-08-06T02:23:53;14.61;99.99
66343;DHT22;53144;51.524;5.080;2023-08-06T02:26:18;14.61;99.99
66343;DHT22;53144;51.524;5.080;2023-08-06T02:28:44;14.63;99.99
66343;DHT22;53144;51.524;5.080;2023-08-06T02:31:09;14.67;99.99
66343;DHT22;53144;51.524;5.080;2023-08-06T02:33:35;14.68;99.99
66343;DHT22;53144;51.524;5.080;2023-08-06T02:36:03;14.69;99.99
66343;DHT22;53144;51.524;5.080;2023-08-06T02:38:32;14.72;99.99
66343;DHT22;53144;51.524;5.080;2023-08-06T02:40:57;14.71;99.99
66343;DHT22;53144;51.524;5.080;2023-08-06T02:43:23;14.71;99.99
66343;DHT22;53144;51.524;5.080;2023-08-06T02:45:48;14.69;99.99
66343;DHT22;53144;51.524;5.080;2023-08-06T02:48:21;14.65;99.99
66343;DHT22;53144;51.524;5.080;2023-08-06T02:50:47;14.64;99.99
66343;DHT22;53144;51.524;5.080;2023-08-06T02:53:12;14.64;99.99
66343;DHT22;53144;51.524;5.080;2023-08-06T02:55:37;14.64;99.99
66343;DHT22;53144;51.524;5.080;2023-08-06T02:58:03;14.67;99.99
66343;DHT22;53144;51.524;5.080;2023-08-06T03:00:28;14.67;99.99
66343;DHT22;53144;51.524;5.080;2023-08-06T03:02:54;14.71;99.99
66343;DHT22;53144;51.524;5.080;2023-08-06T03:05:20;14.68;99.99
66343;DHT22;53144;51.524;5.080;2023-08-06T03:07:45;14.74;99.99
66343;DHT22;53144;51.524;5.080;2023-08-06T03:10:11;14.75;99.99
66343;DHT22;53144;51.524;5.080;2023-08-06T03:12:36;14.77;99.99
66343;DHT22;53144;51.524;5.080;2023-08-06T03:15:02;14.79;99.99
66343;DHT22;53144;51.524;5.080;2023-08-06T03:17:27;14.75;99.99
66343;DHT22;53144;51.524;5.080;2023-08-06T03:19:53;14.75;99.99
66343;DHT22;53144;51.524;5.080;2023-08-06T03:22:18;14.77;99.99
66343;DHT22;53144;51.524;5.080;2023-08-06T03:24:43;14.79;99.99
66343;DHT22;53144;51.524;5.080;2023-08-06T03:27:09;14.75;99.99
66343;DHT22;53144;51.524;5.080;2023-08-06T03:29:34;14.74;99.99
66343;DHT22;53144;51.524;5.080;2023-08-06T03:32:00;14.79;99.99
66343;DHT22;53144;51.524;5.080;2023-08-06T03:34:25;14.82;99.99
66343;DHT22;53144;51.524;5.080;2023-08-06T03:36:51;14.84;99.99
66343;DHT22;53144;51.524;5.080;2023-08-06T03:39:16;14.88;99.99
66343;DHT22;53144;51.524;5.080;2023-08-06T03:41:41;14.88;99.99
66343;DHT22;53144;51.524;5.080;2023-08-06T03:44:07;14.85;99.99
66343;DHT22;53144;51.524;5.080;2023-08-06T03:46:32;14.87;99.99
66343;DHT22;53144;51.524;5.080;2023-08-06T03:48:59;14.91;99.99
66343;DHT22;53144;51.524;5.080;2023-08-06T03:51:25;14.89;99.99
66343;DHT22;53144;51.524;5.080;2023-08-06T03:53:50;14.88;99.99
66343;DHT22;53144;51.524;5.080;2023-08-06T03:56:16;14.87;99.99
66343;DHT22;53144;51.524;5.080;2023-08-06T03:58:41;14.87;99.99
66343;DHT22;53144;51.524;5.080;2023-08-06T04:01:07;14.85;99.99
66343;DHT22;53144;51.524;5.080;2023-08-06T04:03:32;14.87;99.99
66343;DHT22;53144;51.524;5.080;2023-08-06T04:05:57;14.87;99.99
66343;DHT22;53144;51.524;5.080;2023-08-06T04:08:23;14.92;99.99
66343;DHT22;53144;51.524;5.080;2023-08-06T04:10:52;14.91;99.99
66343;DHT22;53144;51.524;5.080;2023-08-06T04:13:19;14.92;99.99
66343;DHT22;53144;51.524;5.080;2023-08-06T04:15:45;14.96;99.99
66343;DHT22;53144;51.524;5.080;2023-08-06T04:18:10;14.92;99.99
66343;DHT22;53144;51.524;5.080;2023-08-06T04:20:45;14.93;99.99
66343;DHT22;53144;51.524;5.080;2023-08-06T04:23:10;14.95;99.99
66343;DHT22;53144;51.524;5.080;2023-08-06T04:25:36;14.95;99.99
66343;DHT22;53144;51.524;5.080;2023-08-06T04:28:02;14.96;99.99
66343;DHT22;53144;51.524;5.080;2023-08-06T04:30:27;15.00;99.99
66343;DHT22;53144;51.524;5.080;2023-08-06T04:32:52;14.98;99.99
66343;DHT22;53144;51.524;5.080;2023-08-06T04:35:18;14.99;99.99
66343;DHT22;53144;51.524;5.080;2023-08-06T04:37:43;14.98;99.99
66343;DHT22;53144;51.524;5.080;2023-08-06T04:40:09;14.92;99.99
66343;DHT22;53144;51.524;5.080;2023-08-06T04:42:34;14.93;99.99
66343;DHT22;53144;51.524;5.080;2023-08-06T04:45:01;14.91;99.99
66343;DHT22;53144;51.524;5.080;2023-08-06T04:47:27;14.88;99.99
66343;DHT22;53144;51.524;5.080;2023-08-06T04:49:53;14.91;99.99
66343;DHT22;53144;51.524;5.080;2023-08-06T04:52:18;14.93;99.99
66343;DHT22;53144;51.524;5.080;2023-08-06T04:54:44;14.88;99.99
66343;DHT22;53144;51.524;5.080;2023-08-06T04:57:09;14.88;99.99
66343;DHT22;53144;51.524;5.080;2023-08-06T04:59:35;14.91;99.99
66343;DHT22;53144;51.524;5.080;2023-08-06T05:02:00;14.87;99.99
66343;DHT22;53144;51.524;5.080;2023-08-06T05:04:27;14.84;99.99
66343;DHT22;53144;51.524;5.080;2023-08-06T05:06:52;14.87;99.99
66343;DHT22;53144;51.524;5.080;2023-08-06T05:09:17;14.85;99.99
66343;DHT22;53144;51.524;5.080;2023-08-06T05:11:43;14.81;99.99
66343;DHT22;53144;51.524;5.080;2023-08-06T05:14:08;14.81;99.99
66343;DHT22;53144;51.524;5.080;2023-08-06T05:16:33;14.81;99.99
66343;DHT22;53144;51.524;5.080;2023-08-06T05:18:59;14.78;99.99
66343;DHT22;53144;51.524;5.080;2023-08-06T05:21:24;14.81;99.99
66343;DHT22;53144;51.524;5.080;2023-08-06T05:23:50;14.78;99.99
66343;DHT22;53144;51.524;5.080;2023-08-06T05:26:15;14.77;99.99
66343;DHT22;53144;51.524;5.080;2023-08-06T05:28:43;14.75;99.99
66343;DHT22;53144;51.524;5.080;2023-08-06T05:31:09;14.74;99.99
66343;DHT22;53144;51.524;5.080;2023-08-06T05:33:34;14.77;99.99
66343;DHT22;53144;51.524;5.080;2023-08-06T05:36:00;14.67;99.99
66343;DHT22;53144;51.524;5.080;2023-08-06T05:38:25;14.69;99.99
66343;DHT22;53144;51.524;5.080;2023-08-06T05:40:51;14.72;99.99
66343;DHT22;53144;51.524;5.080;2023-08-06T05:43:16;14.69;99.99
66343;DHT22;53144;51.524;5.080;2023-08-06T05:45:45;14.64;99.99
66343;DHT22;53144;51.524;5.080;2023-08-06T05:48:12;14.45;99.99
66343;DHT22;53144;51.524;5.080;2023-08-06T05:50:37;14.23;99.99
66343;DHT22;53144;51.524;5.080;2023-08-06T05:53:02;13.92;99.99
66343;DHT22;53144;51.524;5.080;2023-08-06T05:55:28;13.54;99.99
66343;DHT22;53144;51.524;5.080;2023-08-06T05:57:53;13.52;99.99
66343;DHT22;53144;51.524;5.080;2023-08-06T06:00:20;13.37;99.99
66343;DHT22;53144;51.524;5.080;2023-08-06T06:02:45;13.27;99.99
66343;DHT22;53144;51.524;5.080;2023-08-06T06:05:11;13.27;99.99
66343;DHT22;53144;51.524;5.080;2023-08-06T06:07:36;13.22;99.99
66343;DHT22;53144;51.524;5.080;2023-08-06T06:10:02;13.15;99.99
66343;DHT22;53144;51.524;5.080;2023-08-06T06:12:27;13.27;99.99
66343;DHT22;53144;51.524;5.080;2023-08-06T06:14:53;13.28;99.99
66343;DHT22;53144;51.524;5.080;2023-08-06T06:17:18;13.32;99.99
66343;DHT22;53144;51.524;5.080;2023-08-06T06:19:43;13.37;99.99
66343;DHT22;53144;51.524;5.080;2023-08-06T06:22:09;13.40;99.99
66343;DHT22;53144;51.524;5.080;2023-08-06T06:24:34;13.45;99.99
66343;DHT22;53144;51.524;5.080;2023-08-06T06:27:00;13.49;99.99
66343;DHT22;53144;51.524;5.080;2023-08-06T06:29:25;13.51;99.99
66343;DHT22;53144;51.524;5.080;2023-08-06T06:31:50;13.51;99.99
66343;DHT22;53144;51.524;5.080;2023-08-06T06:34:16;13.58;99.99
66343;DHT22;53144;51.524;5.080;2023-08-06T06:36:41;13.59;99.99
66343;DHT22;53144;51.524;5.080;2023-08-06T06:39:07;13.63;99.99
66343;DHT22;53144;51.524;5.080;2023-08-06T06:41:33;13.68;99.99
66343;DHT22;53144;51.524;5.080;2023-08-06T06:43:58;13.71;99.99
66343;DHT22;53144;51.524;5.080;2023-08-06T06:46:24;13.78;99.99
66343;DHT22;53144;51.524;5.080;2023-08-06T06:48:49;13.76;99.99
66343;DHT22;53144;51.524;5.080;2023-08-06T06:51:14;13.78;99.99
66343;DHT22;53144;51.524;5.080;2023-08-06T06:53:40;13.82;99.99
66343;DHT22;53144;51.524;5.080;2023-08-06T06:56:05;13.92;99.99
66343;DHT22;53144;51.524;5.080;2023-08-06T06:58:31;13.90;99.99
66343;DHT22;53144;51.524;5.080;2023-08-06T07:00:57;13.96;99.99
66343;DHT22;53144;51.524;5.080;2023-08-06T07:03:22;13.99;99.99
66343;DHT22;53144;51.524;5.080;2023-08-06T07:05:49;14.02;99.99
66343;DHT22;53144;51.524;5.080;2023-08-06T07:08:15;14.10;99.99
66343;DHT22;53144;51.524;5.080;2023-08-06T07:10:40;14.09;99.99
66343;DHT22;53144;51.524;5.080;2023-08-06T07:13:06;14.09;99.99
66343;DHT22;53144;51.524;5.080;2023-08-06T07:15:32;14.06;99.99
66343;DHT22;53144;51.524;5.080;2023-08-06T07:17:57;14.14;99.99
66343;DHT22;53144;51.524;5.080;2023-08-06T07:20:22;14.20;99.99
66343;DHT22;53144;51.524;5.080;2023-08-06T07:22:48;14.16;99.99
66343;DHT22;53144;51.524;5.080;2023-08-06T07:25:15;14.17;99.99
66343;DHT22;53144;51.524;5.080;2023-08-06T07:27:41;14.26;99.99
66343;DHT22;53144;51.524;5.080;2023-08-06T07:30:07;14.17;99.99
66343;DHT22;53144;51.524;5.080;2023-08-06T07:32:32;14.10;99.99
66343;DHT22;53144;51.524;5.080;2023-08-06T07:34:57;14.13;99.99
66343;DHT22;53144;51.524;5.080;2023-08-06T07:37:28;14.05;99.99
66343;DHT22;53144;51.524;5.080;2023-08-06T07:39:54;14.08;99.99
66343;DHT22;53144;51.524;5.080;2023-08-06T07:42:20;14.06;99.99
66343;DHT22;53144;51.524;5.080;2023-08-06T07:44:55;14.03;99.99
66343;DHT22;53144;51.524;5.080;2023-08-06T07:47:21;14.02;99.99
66343;DHT22;53144;51.524;5.080;2023-08-06T07:49:47;13.90;99.99
66343;DHT22;53144;51.524;5.080;2023-08-06T07:52:12;13.95;99.99
66343;DHT22;53144;51.524;5.080;2023-08-06T07:54:37;13.93;99.99
66343;DHT22;53144;51.524;5.080;2023-08-06T07:57:03;13.92;99.99
66343;DHT22;53144;51.524;5.080;2023-08-06T07:59:28;13.89;99.99
66343;DHT22;53144;51.524;5.080;2023-08-06T08:01:54;13.90;99.99
66343;DHT22;53144;51.524;5.080;2023-08-06T08:04:19;13.87;99.99
66343;DHT22;53144;51.524;5.080;2023-08-06T08:06:46;13.96;99.99
66343;DHT22;53144;51.524;5.080;2023-08-06T08:09:11;13.99;99.99
66343;DHT22;53144;51.524;5.080;2023-08-06T08:11:38;13.90;99.99
66343;DHT22;53144;51.524;5.080;2023-08-06T08:14:04;13.96;99.99
66343;DHT22;53144;51.524;5.080;2023-08-06T08:16:29;13.93;99.99
66343;DHT22;53144;51.524;5.080;2023-08-06T08:18:55;13.98;99.99
66343;DHT22;53144;51.524;5.080;2023-08-06T08:21:20;14.00;99.99
66343;DHT22;53144;51.524;5.080;2023-08-06T08:23:45;14.00;99.99
66343;DHT22;53144;51.524;5.080;2023-08-06T08:26:11;14.03;99.99
66343;DHT22;53144;51.524;5.080;2023-08-06T08:28:36;14.02;99.99
66343;DHT22;53144;51.524;5.080;2023-08-06T08:31:02;14.02;99.99
66343;DHT22;53144;51.524;5.080;2023-08-06T08:33:27;14.09;99.99
66343;DHT22;53144;51.524;5.080;2023-08-06T08:35:52;14.10;99.99
66343;DHT22;53144;51.524;5.080;2023-08-06T08:38:18;14.12;99.99
66343;DHT22;53144;51.524;5.080;2023-08-06T08:40:46;14.14;99.99
66343;DHT22;53144;51.524;5.080;2023-08-06T08:43:15;14.14;99.99
66343;DHT22;53144;51.524;5.080;2023-08-06T08:45:42;14.20;99.99
66343;DHT22;53144;51.524;5.080;2023-08-06T08:48:10;14.20;99.99
66343;DHT22;53144;51.524;5.080;2023-08-06T08:50:36;14.23;99.99
66343;DHT22;53144;51.524;5.080;2023-08-06T08:53:02;14.20;99.99
66343;DHT22;53144;51.524;5.080;2023-08-06T08:55:28;14.30;99.99
66343;DHT22;53144;51.524;5.080;2023-08-06T08:57:53;14.29;99.99
66343;DHT22;53144;51.524;5.080;2023-08-06T09:00:19;14.36;99.99
66343;DHT22;53144;51.524;5.080;2023-08-06T09:02:45;14.48;99.99
66343;DHT22;53144;51.524;5.080;2023-08-06T09:05:12;14.44;99.99
66343;DHT22;53144;51.524;5.080;2023-08-06T09:07:42;14.45;99.99
66343;DHT22;53144;51.524;5.080;2023-08-06T09:10:14;14.50;99.99
66343;DHT22;53144;51.524;5.080;2023-08-06T09:12:43;14.57;99.99
66343;DHT22;53144;51.524;5.080;2023-08-06T09:15:08;14.57;99.99
66343;DHT22;53144;51.524;5.080;2023-08-06T09:17:34;14.58;99.91
66343;DHT22;53144;51.524;5.080;2023-08-06T09:20:09;14.65;99.99
66343;DHT22;53144;51.524;5.080;2023-08-06T09:22:34;14.75;99.99
66343;DHT22;53144;51.524;5.080;2023-08-06T09:25:03;14.69;99.63
66343;DHT22;53144;51.524;5.080;2023-08-06T09:27:34;14.72;99.76
66343;DHT22;53144;51.524;5.080;2023-08-06T09:30:00;14.75;99.99
66343;DHT22;53144;51.524;5.080;2023-08-06T09:32:25;14.84;99.99
66343;DHT22;53144;51.524;5.080;2023-08-06T09:34:55;14.87;99.99
66343;DHT22;53144;51.524;5.080;2023-08-06T09:37:21;14.82;99.99
66343;DHT22;53144;51.524;5.080;2023-08-06T09:39:47;14.79;99.17
66343;DHT22;53144;51.524;5.080;2023-08-06T09:42:15;14.75;98.12
66343;DHT22;53144;51.524;5.080;2023-08-06T09:44:40;14.87;99.48
66343;DHT22;53144;51.524;5.080;2023-08-06T09:47:06;14.82;97.56
66343;DHT22;53144;51.524;5.080;2023-08-06T09:52:00;15.09;99.48
66343;DHT22;53144;51.524;5.080;2023-08-06T09:54:26;15.06;98.55
66343;DHT22;53144;51.524;5.080;2023-08-06T09:56:53;15.06;98.26
66343;DHT22;53144;51.524;5.080;2023-08-06T09:59:19;15.15;98.22
66343;DHT22;53144;51.524;5.080;2023-08-06T10:01:45;15.18;97.90
66343;DHT22;53144;51.524;5.080;2023-08-06T10:04:12;15.23;98.19
66343;DHT22;53144;51.524;5.080;2023-08-06T10:06:38;15.25;97.34
66343;DHT22;53144;51.524;5.080;2023-08-06T10:09:04;15.39;98.41
66343;DHT22;53144;51.524;5.080;2023-08-06T10:11:30;15.40;97.38
66343;DHT22;53144;51.524;5.080;2023-08-06T10:14:08;15.42;97.27
66343;DHT22;53144;51.524;5.080;2023-08-06T10:16:36;15.40;96.48
66343;DHT22;53144;51.524;5.080;2023-08-06T10:19:03;15.47;97.34
66343;DHT22;53144;51.524;5.080;2023-08-06T10:21:31;15.49;96.05
66343;DHT22;53144;51.524;5.080;2023-08-06T10:23:56;15.50;95.83
66343;DHT22;53144;51.524;5.080;2023-08-06T10:26:26;15.54;96.38
66343;DHT22;53144;51.524;5.080;2023-08-06T10:28:52;15.56;95.84
66343;DHT22;53144;51.524;5.080;2023-08-06T10:31:18;15.58;94.34
66343;DHT22;53144;51.524;5.080;2023-08-06T10:33:47;15.64;96.52
66343;DHT22;53144;51.524;5.080;2023-08-06T10:36:14;15.63;97.09
66343;DHT22;53144;51.524;5.080;2023-08-06T10:38:49;15.51;94.68
66343;DHT22;53144;51.524;5.080;2023-08-06T10:41:29;15.57;94.60
66343;DHT22;53144;51.524;5.080;2023-08-06T10:44:08;15.60;93.45
66343;DHT22;53144;51.524;5.080;2023-08-06T10:46:33;15.66;93.20
66343;DHT22;53144;51.524;5.080;2023-08-06T10:48:59;15.73;93.14
66343;DHT22;53144;51.524;5.080;2023-08-06T10:51:25;15.74;91.69
66343;DHT22;53144;51.524;5.080;2023-08-06T10:53:51;15.81;92.25
66343;DHT22;53144;51.524;5.080;2023-08-06T10:56:24;15.91;93.08
66343;DHT22;53144;51.524;5.080;2023-08-06T10:58:56;15.98;91.82
66343;DHT22;53144;51.524;5.080;2023-08-06T11:01:28;16.09;92.76
66343;DHT22;53144;51.524;5.080;2023-08-06T11:03:54;16.11;91.22
66343;DHT22;53144;51.524;5.080;2023-08-06T11:06:21;16.11;89.59
66343;DHT22;53144;51.524;5.080;2023-08-06T11:08:51;16.21;90.22
66343;DHT22;53144;51.524;5.080;2023-08-06T11:11:17;16.19;89.82
66343;DHT22;53144;51.524;5.080;2023-08-06T11:13:43;16.21;88.55
66343;DHT22;53144;51.524;5.080;2023-08-06T11:16:22;16.29;89.37
66343;DHT22;53144;51.524;5.080;2023-08-06T11:18:51;16.32;88.41
66343;DHT22;53144;51.524;5.080;2023-08-06T11:21:20;16.38;86.20
66343;DHT22;53144;51.524;5.080;2023-08-06T11:23:45;16.33;87.01
66343;DHT22;53144;51.524;5.080;2023-08-06T11:26:11;16.45;88.18
66343;DHT22;53144;51.524;5.080;2023-08-06T11:28:36;16.62;89.02
66343;DHT22;53144;51.524;5.080;2023-08-06T11:31:02;16.67;88.08
66343;DHT22;53144;51.524;5.080;2023-08-06T11:33:29;16.66;86.00
66343;DHT22;53144;51.524;5.080;2023-08-06T11:35:55;16.55;86.57
66343;DHT22;53144;51.524;5.080;2023-08-06T11:38:21;16.30;86.76
66343;DHT22;53144;51.524;5.080;2023-08-06T11:40:47;16.18;87.83
66343;DHT22;53144;51.524;5.080;2023-08-06T11:43:13;16.12;89.28
66343;DHT22;53144;51.524;5.080;2023-08-06T11:45:40;16.18;89.93
66343;DHT22;53144;51.524;5.080;2023-08-06T11:48:06;16.08;89.26
66343;DHT22;53144;51.524;5.080;2023-08-06T11:50:36;16.28;90.98
66343;DHT22;53144;51.524;5.080;2023-08-06T11:53:03;16.38;90.37
66343;DHT22;53144;51.524;5.080;2023-08-06T11:55:28;16.38;88.90
66343;DHT22;53144;51.524;5.080;2023-08-06T11:57:54;16.41;90.45
66343;DHT22;53144;51.524;5.080;2023-08-06T12:00:23;16.51;89.60
66343;DHT22;53144;51.524;5.080;2023-08-06T12:02:49;16.49;89.77
66343;DHT22;53144;51.524;5.080;2023-08-06T12:05:28;16.41;88.43
66343;DHT22;53144;51.524;5.080;2023-08-06T12:07:58;16.39;89.12
66343;DHT22;53144;51.524;5.080;2023-08-06T12:10:25;16.38;88.95
66343;DHT22;53144;51.524;5.080;2023-08-06T12:12:51;16.42;89.78
66343;DHT22;53144;51.524;5.080;2023-08-06T12:15:17;16.55;90.07
66343;DHT22;53144;51.524;5.080;2023-08-06T12:17:43;16.52;89.52
66343;DHT22;53144;51.524;5.080;2023-08-06T12:20:09;16.56;89.44
66343;DHT22;53144;51.524;5.080;2023-08-06T12:22:35;16.69;90.14
66343;DHT22;53144;51.524;5.080;2023-08-06T12:25:03;16.77;90.73
66343;DHT22;53144;51.524;5.080;2023-08-06T12:27:32;16.76;90.03
66343;DHT22;53144;51.524;5.080;2023-08-06T12:29:57;16.69;89.08
66343;DHT22;53144;51.524;5.080;2023-08-06T12:32:22;16.83;88.98
66343;DHT22;53144;51.524;5.080;2023-08-06T12:34:48;16.81;89.15
66343;DHT22;53144;51.524;5.080;2023-08-06T12:37:13;16.80;89.14
66343;DHT22;53144;51.524;5.080;2023-08-06T12:39:39;16.74;89.79
66343;DHT22;53144;51.524;5.080;2023-08-06T12:42:05;16.43;88.08
66343;DHT22;53144;51.524;5.080;2023-08-06T12:44:31;16.52;90.06
66343;DHT22;53144;51.524;5.080;2023-08-06T12:46:57;16.48;89.15
66343;DHT22;53144;51.524;5.080;2023-08-06T12:49:23;16.57;90.45
66343;DHT22;53144;51.524;5.080;2023-08-06T12:51:50;16.53;88.49
66343;DHT22;53144;51.524;5.080;2023-08-06T12:54:20;16.60;90.22
66343;DHT22;53144;51.524;5.080;2023-08-06T12:56:46;16.69;90.39
66343;DHT22;53144;51.524;5.080;2023-08-06T12:59:14;16.64;89.35
66343;DHT22;53144;51.524;5.080;2023-08-06T13:01:40;16.77;91.24
66343;DHT22;53144;51.524;5.080;2023-08-06T13:04:05;16.76;90.07
66343;DHT22;53144;51.524;5.080;2023-08-06T13:06:31;16.79;90.25
66343;DHT22;53144;51.524;5.080;2023-08-06T13:09:01;16.72;88.40
66343;DHT22;53144;51.524;5.080;2023-08-06T13:11:26;16.70;87.82
66343;DHT22;53144;51.524;5.080;2023-08-06T13:13:52;16.72;87.61
66343;DHT22;53144;51.524;5.080;2023-08-06T13:16:17;16.66;87.14
66343;DHT22;53144;51.524;5.080;2023-08-06T13:18:43;16.51;86.98
66343;DHT22;53144;51.524;5.080;2023-08-06T13:21:08;16.35;87.92
66343;DHT22;53144;51.524;5.080;2023-08-06T13:23:33;16.12;89.86
66343;DHT22;53144;51.524;5.080;2023-08-06T13:25:59;15.93;94.14
66343;DHT22;53144;51.524;5.080;2023-08-06T13:28:24;15.84;94.73
66343;DHT22;53144;51.524;5.080;2023-08-06T13:30:50;15.63;95.40
66343;DHT22;53144;51.524;5.080;2023-08-06T13:33:15;15.71;96.10
66343;DHT22;53144;51.524;5.080;2023-08-06T13:35:41;15.81;95.84
66343;DHT22;53144;51.524;5.080;2023-08-06T13:38:06;16.02;96.17
66343;DHT22;53144;51.524;5.080;2023-08-06T13:40:33;16.16;95.45
66343;DHT22;53144;51.524;5.080;2023-08-06T13:42:58;16.29;95.17
66343;DHT22;53144;51.524;5.080;2023-08-06T13:45:24;16.42;95.33
66343;DHT22;53144;51.524;5.080;2023-08-06T13:47:49;16.41;92.64
66343;DHT22;53144;51.524;5.080;2023-08-06T13:50:15;16.45;93.31
66343;DHT22;53144;51.524;5.080;2023-08-06T13:52:40;16.41;90.58
66343;DHT22;53144;51.524;5.080;2023-08-06T13:55:06;16.39;90.26
66343;DHT22;53144;51.524;5.080;2023-08-06T13:57:33;16.39;92.06
66343;DHT22;53144;51.524;5.080;2023-08-06T13:59:59;16.41;91.85
66343;DHT22;53144;51.524;5.080;2023-08-06T14:02:24;16.45;91.36
66343;DHT22;53144;51.524;5.080;2023-08-06T14:04:52;16.52;89.79
66343;DHT22;53144;51.524;5.080;2023-08-06T14:07:17;16.69;90.45
66343;DHT22;53144;51.524;5.080;2023-08-06T14:09:43;16.85;90.99
66343;DHT22;53144;51.524;5.080;2023-08-06T14:12:09;16.95;89.39
66343;DHT22;53144;51.524;5.080;2023-08-06T14:14:35;17.01;88.23
66343;DHT22;53144;51.524;5.080;2023-08-06T14:17:00;16.88;86.74
66343;DHT22;53144;51.524;5.080;2023-08-06T14:19:26;16.91;88.75
66343;DHT22;53144;51.524;5.080;2023-08-06T14:21:51;16.72;89.64
66343;DHT22;53144;51.524;5.080;2023-08-06T14:24:16;16.85;89.84
66343;DHT22;53144;51.524;5.080;2023-08-06T14:26:42;16.94;88.51
66343;DHT22;53144;51.524;5.080;2023-08-06T14:29:07;17.03;88.86
66343;DHT22;53144;51.524;5.080;2023-08-06T14:31:33;16.95;88.44
66343;DHT22;53144;51.524;5.080;2023-08-06T14:33:58;16.97;88.93
66343;DHT22;53144;51.524;5.080;2023-08-06T14:36:26;17.07;89.44
66343;DHT22;53144;51.524;5.080;2023-08-06T14:38:51;17.07;89.86
66343;DHT22;53144;51.524;5.080;2023-08-06T14:41:16;16.80;87.57
66343;DHT22;53144;51.524;5.080;2023-08-06T14:43:42;16.79;88.83
66343;DHT22;53144;51.524;5.080;2023-08-06T14:46:07;16.63;88.54
66343;DHT22;53144;51.524;5.080;2023-08-06T14:48:33;16.69;89.80
66343;DHT22;53144;51.524;5.080;2023-08-06T14:50:58;16.55;89.38
66343;DHT22;53144;51.524;5.080;2023-08-06T14:53:24;16.51;89.48
66343;DHT22;53144;51.524;5.080;2023-08-06T14:55:49;16.22;89.77
66343;DHT22;53144;51.524;5.080;2023-08-06T14:58:15;16.02;91.04
66343;DHT22;53144;51.524;5.080;2023-08-06T15:00:40;15.68;93.24
66343;DHT22;53144;51.524;5.080;2023-08-06T15:03:06;15.33;95.54
66343;DHT22;53144;51.524;5.080;2023-08-06T15:05:31;15.25;95.47
66343;DHT22;53144;51.524;5.080;2023-08-06T15:07:57;15.16;96.48
66343;DHT22;53144;51.524;5.080;2023-08-06T15:10:22;14.87;97.47
66343;DHT22;53144;51.524;5.080;2023-08-06T15:12:48;14.89;98.01
66343;DHT22;53144;51.524;5.080;2023-08-06T15:15:14;14.64;98.62
66343;DHT22;53144;51.524;5.080;2023-08-06T15:17:39;14.71;98.31
66343;DHT22;53144;51.524;5.080;2023-08-06T15:20:05;14.64;98.60
66343;DHT22;53144;51.524;5.080;2023-08-06T15:22:31;14.64;97.97
66343;DHT22;53144;51.524;5.080;2023-08-06T15:25:00;14.65;97.61
66343;DHT22;53144;51.524;5.080;2023-08-06T15:27:26;14.65;97.62